createdAt,value
2022-08-04T08:30:53.801Z,28.43
2022-08-04T08:31:56.236Z,28.51
2022-08-04T08:32:54.858Z,28.60
2022-08-04T08:33:54.407Z,28.69
2022-08-04T08:34:53.849Z,28.83
2022-08-04T08:35:54.821Z,28.87
2022-08-04T08:36:53.905Z,28.95
2022-08-04T08:37:54.399Z,28.87
2022-08-04T08:38:53.822Z,28.88
2022-08-04T08:39:53.773Z,28.97
2022-08-04T08:40:53.735Z,29.11
2022-08-04T08:41:53.775Z,29.07
2022-08-04T08:42:53.713Z,29.44
2022-08-04T08:44:04.375Z,29.29
2022-08-04T08:44:57.776Z,29.20
2022-08-04T08:45:53.714Z,29.35
2022-08-04T08:46:53.681Z,29.44
2022-08-04T08:48:05.279Z,29.45
2022-08-04T08:48:54.626Z,29.62
2022-08-04T08:50:01.178Z,29.74
2022-08-04T08:50:54.641Z,29.89
2022-08-04T08:51:53.549Z,29.85
2022-08-04T08:52:57.499Z,29.79
2022-08-04T08:53:55.403Z,29.94
2022-08-04T08:54:53.531Z,29.94
2022-08-04T08:55:53.531Z,29.95
2022-08-04T08:56:53.540Z,29.97
2022-08-04T08:58:00.028Z,29.92
2022-08-04T08:58:54.435Z,29.99
2022-08-04T08:59:53.415Z,29.89
2022-08-04T09:00:53.400Z,30.03
2022-08-04T09:01:53.988Z,30.03
2022-08-04T09:03:04.445Z,30.06
2022-08-04T09:03:54.329Z,30.08
2022-08-04T09:04:53.319Z,30.13
2022-08-04T09:05:53.284Z,30.37
2022-08-04T09:06:53.331Z,30.48
2022-08-04T09:07:53.284Z,30.76
2022-08-04T09:08:53.239Z,30.86
2022-08-04T09:09:53.230Z,30.97
2022-08-04T09:10:53.219Z,31.05
2022-08-04T09:11:53.198Z,30.97
2022-08-04T09:12:53.282Z,30.98
2022-08-04T09:13:53.176Z,31.07
2022-08-04T09:14:53.154Z,31.13
2022-08-04T09:15:54.525Z,31.25
2022-08-04T09:16:53.109Z,31.16
2022-08-04T09:17:53.128Z,30.98
2022-08-04T09:18:53.617Z,30.88
2022-08-04T09:19:53.049Z,30.90
2022-08-04T09:20:53.119Z,30.93
2022-08-04T09:21:53.051Z,30.96
2022-08-04T09:22:53.938Z,30.90
2022-08-04T09:23:53.026Z,30.91
2022-08-04T09:24:52.964Z,31.00
2022-08-04T09:25:52.943Z,31.34
2022-08-04T09:27:00.042Z,31.45
2022-08-04T09:27:53.913Z,31.56
2022-08-04T09:28:54.627Z,31.57
2022-08-04T09:29:52.854Z,31.79
2022-08-04T09:30:52.734Z,31.69
2022-08-04T09:32:06.424Z,31.62
2022-08-04T09:32:54.438Z,31.53
2022-08-04T09:33:52.827Z,31.64
2022-08-04T09:35:05.255Z,31.68
2022-08-04T09:35:53.787Z,31.72
2022-08-04T09:36:52.752Z,31.71
2022-08-04T09:37:52.733Z,31.72
2022-08-04T09:38:52.766Z,31.91
2022-08-04T09:39:52.801Z,32.03
2022-08-04T09:40:56.962Z,32.03
2022-08-04T09:41:53.323Z,32.06
2022-08-04T09:42:53.383Z,32.07
2022-08-04T09:44:40.799Z,32.17
2022-08-04T09:44:58.757Z,32.27
2022-08-04T09:45:53.763Z,32.36
2022-08-04T09:46:52.584Z,32.36
2022-08-04T09:47:52.548Z,32.47
2022-08-04T09:48:52.588Z,32.44
2022-08-04T09:49:52.553Z,32.49
2022-08-04T09:50:53.442Z,32.56
2022-08-04T09:51:57.613Z,32.47
2022-08-04T09:52:53.442Z,32.36
2022-08-04T09:53:52.528Z,32.61
2022-08-04T09:54:53.575Z,32.71
2022-08-04T09:55:53.597Z,32.69
2022-08-04T09:56:52.463Z,32.54
2022-08-04T09:57:52.351Z,32.65
2022-08-04T09:58:52.336Z,32.65
2022-08-04T09:59:52.369Z,32.54
2022-08-04T10:00:52.420Z,32.59
2022-08-04T10:01:58.938Z,32.68
2022-08-04T10:02:53.427Z,32.87
2022-08-04T10:03:52.344Z,32.98
2022-08-04T10:04:52.206Z,33.09
2022-08-04T10:05:52.324Z,33.28
2022-08-04T10:06:52.336Z,33.34
2022-08-04T10:07:59.676Z,33.45
2022-08-04T10:08:57.037Z,33.38
2022-08-04T10:09:52.190Z,33.29
2022-08-04T10:10:52.159Z,33.15
2022-08-04T10:11:56.232Z,33.33
2022-08-04T10:12:52.160Z,33.29
2022-08-04T10:13:52.141Z,33.35
2022-08-04T10:14:52.127Z,33.34
2022-08-04T10:15:52.303Z,33.41
2022-08-04T10:16:52.010Z,33.57
2022-08-04T10:17:52.687Z,33.74
2022-08-04T10:18:51.990Z,33.63
2022-08-04T10:19:53.001Z,33.56
2022-08-04T10:20:57.366Z,33.63
2022-08-04T10:22:27.474Z,33.65
2022-08-04T10:23:10.514Z,33.77
2022-08-04T10:23:55.146Z,33.79
2022-08-04T10:24:51.905Z,33.63
2022-08-04T10:26:06.001Z,33.59
2022-08-04T10:26:56.983Z,33.77
2022-08-04T10:27:52.490Z,33.71
2022-08-04T10:28:52.023Z,33.72
2022-08-04T10:29:51.828Z,33.74
2022-08-04T10:30:51.763Z,34.05
2022-08-04T10:31:51.837Z,33.93
2022-08-04T10:32:51.827Z,33.96
2022-08-04T10:33:51.895Z,34.03
2022-08-04T10:34:52.481Z,34.06
2022-08-04T10:35:51.739Z,34.26
2022-08-04T10:36:51.708Z,34.37
2022-08-04T10:38:00.166Z,34.55
2022-08-04T10:38:52.714Z,34.46
2022-08-04T10:39:51.624Z,34.49
2022-08-04T10:40:51.588Z,34.58
2022-08-04T10:41:51.591Z,34.69
2022-08-04T10:42:51.572Z,34.69
2022-08-04T10:43:51.579Z,34.64
2022-08-04T10:44:55.528Z,34.55
2022-08-04T10:45:57.768Z,34.55
2022-08-04T10:46:52.474Z,34.37
2022-08-04T10:47:53.161Z,34.19
2022-08-04T10:48:51.593Z,34.21
2022-08-04T10:49:51.519Z,34.27
2022-08-04T10:50:55.407Z,34.12
2022-08-04T10:51:58.911Z,34.23
2022-08-04T10:52:52.419Z,34.26
2022-08-04T10:53:51.422Z,34.49
2022-08-04T10:54:51.372Z,34.56
2022-08-04T10:56:07.579Z,34.81
2022-08-04T10:56:56.526Z,34.84
2022-08-04T10:57:51.317Z,34.81
2022-08-04T10:58:51.401Z,34.94
2022-08-04T10:59:51.307Z,35.15
2022-08-04T11:00:51.268Z,35.15
2022-08-04T11:02:02.707Z,35.12
2022-08-04T11:02:52.382Z,34.99
2022-08-04T11:03:51.235Z,35.07
2022-08-04T11:04:51.252Z,34.99
2022-08-04T11:05:51.215Z,35.20
2022-08-04T11:06:51.178Z,35.27
2022-08-04T11:07:51.104Z,35.22
2022-08-04T11:08:51.161Z,34.94
2022-08-04T11:09:51.113Z,35.15
2022-08-04T11:10:51.090Z,35.17
2022-08-04T11:12:01.115Z,35.24
2022-08-04T11:12:52.087Z,35.15
2022-08-04T11:13:51.073Z,35.03
2022-08-04T11:14:51.097Z,35.12
2022-08-04T11:15:51.011Z,34.80
2022-08-04T11:16:51.026Z,34.86
2022-08-04T11:17:50.992Z,34.83
2022-08-04T11:18:51.044Z,35.00
2022-08-04T11:19:54.568Z,34.80
2022-08-04T11:20:52.053Z,34.94
2022-08-04T11:21:50.937Z,34.84
2022-08-04T11:22:50.884Z,34.87
2022-08-04T11:23:50.887Z,34.88
2022-08-04T11:24:51.529Z,34.72
2022-08-04T11:25:52.138Z,34.72
2022-08-04T11:26:50.819Z,34.94
2022-08-04T11:27:50.865Z,35.09
2022-08-04T11:28:58.580Z,35.34
2022-08-04T11:29:52.557Z,35.47
2022-08-04T11:30:50.891Z,35.59
2022-08-04T11:31:51.996Z,35.76
2022-08-04T11:32:50.743Z,35.92
2022-08-04T11:33:50.802Z,35.85
2022-08-04T11:34:52.773Z,35.93
2022-08-04T11:35:50.751Z,36.08
2022-08-04T11:36:50.561Z,36.22
2022-08-04T11:37:50.667Z,36.35
2022-08-04T11:38:50.866Z,36.53
2022-08-04T11:39:50.621Z,36.67
2022-08-04T11:41:02.057Z,36.57
2022-08-04T11:41:51.639Z,36.57
2022-08-04T11:42:50.684Z,36.25
2022-08-04T11:44:00.501Z,36.13
2022-08-04T11:44:51.535Z,36.19
2022-08-04T11:45:50.663Z,36.41
2022-08-04T11:46:50.529Z,36.41
2022-08-04T11:47:50.597Z,36.55
2022-08-04T11:48:50.431Z,36.56
2022-08-04T11:49:56.473Z,36.48
2022-08-04T11:50:53.776Z,36.22
2022-08-04T11:51:52.079Z,36.35
2022-08-04T11:52:50.289Z,36.38
2022-08-04T11:53:50.409Z,36.38
2022-08-04T11:54:52.492Z,36.52
2022-08-04T11:56:09.313Z,36.48
2022-08-04T11:56:51.289Z,36.53
2022-08-04T11:57:54.086Z,36.57
2022-08-04T11:58:50.707Z,36.55
2022-08-04T11:59:50.280Z,36.38
2022-08-04T12:00:50.230Z,36.02
2022-08-04T12:01:50.279Z,36.12
2022-08-04T12:02:50.320Z,36.25
2022-08-04T12:04:03.388Z,36.22
2022-08-04T12:04:51.198Z,35.85
2022-08-04T12:05:51.045Z,35.76
2022-08-04T12:06:56.766Z,35.80
2022-08-04T12:07:51.215Z,35.74
2022-08-04T12:08:50.069Z,35.73
2022-08-04T12:09:50.089Z,35.69
2022-08-04T12:10:50.021Z,35.83
2022-08-04T12:11:51.132Z,35.87
2022-08-04T12:12:50.191Z,35.61
2022-08-04T12:13:50.216Z,35.64
2022-08-04T12:14:49.936Z,35.95
2022-08-04T12:15:49.897Z,36.18
2022-08-04T12:16:50.005Z,36.23
2022-08-04T12:17:52.562Z,36.38
2022-08-04T12:18:49.950Z,36.33
2022-08-04T12:20:03.966Z,36.30
2022-08-04T12:20:50.927Z,36.52
2022-08-04T12:21:53.317Z,36.78
2022-08-04T12:22:50.881Z,36.38
2022-08-04T12:23:49.919Z,35.98
2022-08-04T12:24:50.839Z,35.92
2022-08-04T12:25:49.726Z,36.46
2022-08-04T12:26:49.727Z,36.89
2022-08-04T12:27:50.546Z,37.13
2022-08-04T12:30:59.314Z,37.63
2022-08-04T12:31:01.315Z,37.65
2022-08-04T12:31:50.752Z,37.58
2022-08-04T12:32:53.588Z,37.56
2022-08-04T12:34:04.314Z,37.31
2022-08-04T12:34:50.741Z,37.33
2022-08-04T12:36:10.087Z,36.99
2022-08-04T12:36:50.609Z,37.12
2022-08-04T12:37:49.557Z,37.46
2022-08-04T12:38:49.632Z,37.54
2022-08-04T12:40:27.773Z,37.16
2022-08-04T12:40:50.504Z,36.91
2022-08-04T12:41:49.650Z,36.69
2022-08-04T12:42:56.186Z,36.74
2022-08-04T12:43:50.603Z,36.22
2022-08-04T12:44:49.621Z,36.43
2022-08-04T12:45:49.375Z,36.72
2022-08-04T12:46:49.463Z,37.08
2022-08-04T12:47:49.385Z,37.30
2022-08-04T12:48:50.050Z,37.18
2022-08-04T12:50:00.423Z,37.80
2022-08-04T12:50:50.410Z,37.73
2022-08-04T12:52:07.689Z,38.15
2022-08-04T12:53:05.631Z,38.12
2022-08-04T12:53:50.756Z,38.24
2022-08-04T12:54:49.245Z,38.26
2022-08-04T12:56:01.424Z,38.62
2022-08-04T12:56:50.206Z,38.84
2022-08-04T12:57:49.207Z,38.67
2022-08-04T12:58:49.290Z,38.75
2022-08-04T12:59:57.068Z,38.62
2022-08-04T13:00:50.224Z,38.22
2022-08-04T13:02:09.285Z,38.22
2022-08-04T13:02:50.209Z,38.06
2022-08-04T13:03:49.205Z,38.09
2022-08-04T13:04:50.418Z,38.45
2022-08-04T13:05:49.099Z,38.58
2022-08-04T13:06:49.079Z,39.10
2022-08-04T13:07:49.035Z,39.39
2022-08-04T13:08:49.133Z,39.39
2022-08-04T13:09:49.009Z,39.81
2022-08-04T13:10:49.141Z,39.87
2022-08-04T13:11:48.939Z,40.22
2022-08-04T13:12:48.978Z,40.67
2022-08-04T13:14:00.604Z,40.42
2022-08-04T13:14:51.045Z,40.45
2022-08-04T13:15:56.719Z,40.34
2022-08-04T13:16:50.555Z,40.11
2022-08-04T13:17:49.039Z,40.31
2022-08-04T13:18:48.976Z,40.07
2022-08-04T13:19:50.202Z,39.61
2022-08-04T13:20:48.855Z,39.51
2022-08-04T13:21:50.509Z,39.56
2022-08-04T13:22:49.780Z,39.82
2022-08-04T13:24:19.836Z,39.78
2022-08-04T13:24:56.624Z,39.78
2022-08-04T13:26:42.739Z,39.82
2022-08-04T13:26:54.427Z,39.80
2022-08-04T13:27:55.386Z,39.25
2022-08-04T13:28:49.800Z,39.75
2022-08-04T13:29:57.723Z,39.54
2022-08-04T13:30:50.572Z,39.84
2022-08-04T13:31:52.683Z,39.92
2022-08-04T13:32:48.723Z,40.24
2022-08-04T13:33:48.621Z,40.28
2022-08-04T13:34:49.105Z,40.41
2022-08-04T13:35:54.462Z,40.64
2022-08-04T13:36:49.608Z,40.63
2022-08-04T13:37:48.522Z,40.75
2022-08-04T13:38:48.629Z,41.02
2022-08-04T13:39:55.611Z,41.29
2022-08-04T13:40:49.509Z,41.47
2022-08-04T13:41:56.991Z,41.62
2022-08-04T13:42:49.432Z,41.47
2022-08-04T13:44:17.577Z,41.19
2022-08-04T13:44:49.514Z,40.63
2022-08-04T13:45:48.399Z,40.57
2022-08-04T13:46:50.771Z,40.48
2022-08-04T13:47:48.380Z,40.44
2022-08-04T13:49:03.377Z,40.72
2022-08-04T13:50:09.796Z,40.80
2022-08-04T13:50:49.328Z,40.38
2022-08-04T13:51:58.056Z,40.29
2022-08-04T13:52:49.293Z,40.64
2022-08-04T13:53:48.245Z,40.85
2022-08-04T13:54:49.092Z,40.39
2022-08-04T13:55:48.217Z,40.13
2022-08-04T13:56:49.454Z,40.16
2022-08-04T13:57:48.188Z,40.22
2022-08-04T13:58:48.272Z,40.03
2022-08-04T13:59:48.190Z,40.07
2022-08-04T14:00:48.340Z,39.62
2022-08-04T14:01:48.212Z,39.32
2022-08-04T14:02:49.184Z,39.13
2022-08-04T14:03:53.574Z,39.50
2022-08-04T14:04:49.062Z,39.85
2022-08-04T14:05:59.528Z,40.19
2022-08-04T14:06:49.061Z,40.10
2022-08-04T14:07:48.020Z,40.29
2022-08-04T14:08:48.191Z,40.19
2022-08-04T14:10:02.943Z,40.09
2022-08-04T14:10:48.994Z,40.04
2022-08-04T14:12:10.136Z,39.87
2022-08-04T14:12:49.014Z,40.07
2022-08-04T14:13:48.608Z,39.99
2022-08-04T14:14:48.036Z,39.88
2022-08-04T14:16:01.455Z,39.84
2022-08-04T14:16:48.989Z,39.82
2022-08-04T14:17:48.015Z,39.51
2022-08-04T14:18:48.041Z,39.88
2022-08-04T14:19:47.946Z,40.10
2022-08-04T14:20:47.981Z,40.39
2022-08-04T14:21:47.826Z,40.41
2022-08-04T14:22:47.908Z,40.64
2022-08-04T14:23:48.178Z,40.61
2022-08-04T14:24:47.837Z,40.82
2022-08-04T14:25:47.806Z,40.76
2022-08-04T14:26:47.876Z,40.71
2022-08-04T14:27:47.791Z,40.56
2022-08-04T14:29:25.882Z,40.13
2022-08-04T14:29:48.676Z,39.80
2022-08-04T14:30:47.774Z,39.73
2022-08-04T14:31:56.593Z,39.81
2022-08-04T14:32:53.415Z,39.68
2022-08-04T14:34:04.374Z,39.63
2022-08-04T14:34:48.628Z,39.39
2022-08-04T14:35:50.390Z,38.97
2022-08-04T14:37:13.970Z,38.60
2022-08-04T14:37:48.842Z,38.74
2022-08-04T14:38:47.612Z,38.60
2022-08-04T14:40:08.944Z,38.34
2022-08-04T14:40:48.492Z,38.44
2022-08-04T14:41:47.452Z,38.30
2022-08-04T14:42:54.649Z,37.93
2022-08-04T14:43:48.458Z,37.87
2022-08-04T14:44:47.598Z,37.70
2022-08-04T14:45:54.547Z,37.82
2022-08-04T14:46:48.396Z,37.87
2022-08-04T14:47:52.311Z,37.73
2022-08-04T14:48:51.079Z,37.59
2022-08-04T14:49:47.389Z,37.72
2022-08-04T14:50:47.422Z,37.84
2022-08-04T14:51:47.301Z,37.84
2022-08-04T14:52:47.391Z,38.03
2022-08-04T14:53:47.261Z,38.19
2022-08-04T14:54:47.428Z,38.25
2022-08-04T14:55:48.092Z,38.22
2022-08-04T14:56:48.129Z,38.16
2022-08-04T14:58:36.010Z,38.16
2022-08-04T14:58:48.194Z,37.99
2022-08-04T14:59:59.407Z,37.91
2022-08-04T15:00:48.236Z,37.88
2022-08-04T15:01:47.198Z,37.77
2022-08-04T15:02:48.105Z,37.62
2022-08-04T15:03:51.030Z,37.46
2022-08-04T15:04:48.189Z,37.35
2022-08-04T15:05:55.454Z,37.28
2022-08-04T15:06:48.054Z,37.16
2022-08-04T15:07:47.099Z,37.31
2022-08-04T15:08:47.489Z,37.35
2022-08-04T15:09:47.136Z,37.31
2022-08-04T15:10:47.084Z,36.96
2022-08-04T15:11:47.006Z,36.93
2022-08-04T15:12:47.057Z,37.11
2022-08-04T15:13:47.011Z,37.18
2022-08-04T15:14:47.015Z,37.39
2022-08-04T15:16:06.975Z,37.56
2022-08-04T15:16:54.528Z,37.50
2022-08-04T15:17:47.935Z,37.69
2022-08-04T15:18:49.669Z,37.59
2022-08-04T15:19:55.846Z,37.58
2022-08-04T15:20:47.814Z,37.46
2022-08-04T15:21:46.853Z,37.49
2022-08-04T15:22:46.875Z,37.50
2022-08-04T15:23:46.795Z,37.80
2022-08-04T15:24:52.263Z,37.90
2022-08-04T15:25:47.855Z,38.12
2022-08-04T15:26:46.957Z,38.44
2022-08-04T15:27:46.678Z,38.72
2022-08-04T15:28:46.791Z,38.81
2022-08-04T15:30:00.757Z,38.72
2022-08-04T15:30:47.672Z,38.58
2022-08-04T15:32:06.695Z,38.75
2022-08-04T15:32:47.580Z,38.82
2022-08-04T15:33:46.623Z,38.65
2022-08-04T15:34:46.695Z,38.49
2022-08-04T15:35:46.564Z,38.50
2022-08-04T15:36:56.242Z,38.26
2022-08-04T15:37:47.590Z,37.96
2022-08-04T15:38:46.601Z,37.75
2022-08-04T15:39:46.513Z,37.66
2022-08-04T15:40:46.572Z,37.63
2022-08-04T15:41:55.262Z,37.46
2022-08-04T15:42:47.463Z,37.24
2022-08-04T15:43:46.463Z,37.30
2022-08-04T15:44:47.421Z,37.38
2022-08-04T15:46:33.057Z,37.28
2022-08-04T15:46:47.354Z,37.11
2022-08-04T15:47:53.594Z,37.08
2022-08-04T15:48:47.354Z,37.01
2022-08-04T15:49:46.314Z,37.01
2022-08-04T15:50:47.134Z,36.83
2022-08-04T15:51:46.347Z,36.82
2022-08-04T15:53:01.256Z,36.74
2022-08-04T15:54:03.453Z,36.60
2022-08-04T15:54:52.551Z,36.53
2022-08-04T15:55:48.117Z,36.41
2022-08-04T15:56:48.525Z,36.46
2022-08-04T15:57:47.255Z,36.48
2022-08-04T15:58:47.142Z,36.48
2022-08-04T15:59:46.150Z,36.44
2022-08-04T16:00:46.846Z,36.59
2022-08-04T16:02:10.898Z,36.43
2022-08-04T16:02:47.165Z,36.38
2022-08-04T16:03:53.085Z,36.25
2022-08-04T16:04:47.123Z,36.22
2022-08-04T16:05:46.081Z,36.35
2022-08-04T16:06:46.151Z,36.49
2022-08-04T16:07:46.064Z,36.52
2022-08-04T16:08:46.187Z,36.57
2022-08-04T16:09:47.023Z,36.50
2022-08-04T16:10:46.108Z,36.50
2022-08-04T16:11:45.946Z,36.49
2022-08-04T16:12:54.173Z,36.41
2022-08-04T16:13:46.960Z,36.38
2022-08-04T16:14:46.226Z,36.02
2022-08-04T16:15:45.954Z,36.02
2022-08-04T16:16:45.993Z,35.93
2022-08-04T16:17:45.870Z,36.15
2022-08-04T16:18:45.992Z,35.98
2022-08-04T16:19:45.833Z,35.93
2022-08-04T16:20:45.853Z,35.89
2022-08-04T16:21:46.885Z,35.89
2022-08-04T16:22:45.828Z,35.93
2022-08-04T16:23:54.113Z,35.83
2022-08-04T16:24:46.832Z,35.84
2022-08-04T16:25:46.348Z,35.95
2022-08-04T16:26:53.554Z,36.00
2022-08-04T16:27:46.719Z,36.00
2022-08-04T16:28:45.709Z,36.00
2022-08-04T16:29:45.664Z,36.05
2022-08-04T16:30:46.615Z,36.11
2022-08-04T16:31:45.707Z,36.27
2022-08-04T16:32:45.676Z,36.41
2022-08-04T16:33:45.549Z,36.52
2022-08-04T16:34:54.542Z,36.62
2022-08-04T16:35:46.549Z,36.62
2022-08-04T16:36:45.605Z,36.50
2022-08-04T16:37:45.488Z,36.44
2022-08-04T16:38:45.578Z,36.50
2022-08-04T16:39:50.239Z,36.65
2022-08-04T16:40:46.572Z,36.82
2022-08-04T16:41:45.438Z,36.97
2022-08-04T16:42:45.527Z,36.89
2022-08-04T16:43:45.400Z,36.90
2022-08-04T16:44:53.672Z,36.97
2022-08-04T16:45:46.374Z,36.97
2022-08-04T16:47:08.898Z,36.68
2022-08-04T16:47:46.570Z,36.49
2022-08-04T16:48:46.097Z,36.44
2022-08-04T16:49:49.505Z,36.41
2022-08-04T16:50:46.388Z,36.33
2022-08-04T16:51:45.444Z,36.25
2022-08-04T16:52:45.338Z,36.21
2022-08-04T16:53:53.316Z,36.25
2022-08-04T16:54:46.228Z,36.21
2022-08-04T16:55:45.164Z,36.21
2022-08-04T16:56:45.311Z,36.08
2022-08-04T16:57:45.297Z,35.91
2022-08-04T16:58:52.989Z,35.78
2022-08-04T16:59:46.386Z,35.68
2022-08-04T17:00:45.197Z,35.87
2022-08-04T17:01:45.165Z,36.05
2022-08-04T17:02:45.212Z,36.11
2022-08-04T17:03:45.154Z,36.11
2022-08-04T17:04:46.192Z,36.00
2022-08-04T17:05:46.038Z,35.93
2022-08-04T17:06:45.160Z,36.00
2022-08-04T17:07:45.014Z,36.08
2022-08-04T17:08:45.090Z,36.18
2022-08-04T17:09:44.958Z,36.28
2022-08-04T17:10:45.048Z,36.37
2022-08-04T17:11:45.076Z,36.35
2022-08-04T17:12:45.056Z,35.96
2022-08-04T17:14:03.552Z,35.71
2022-08-04T17:14:45.895Z,35.58
2022-08-04T17:15:44.873Z,35.54
2022-08-04T17:16:44.925Z,35.58
2022-08-04T17:18:05.715Z,35.61
2022-08-04T17:18:45.862Z,35.65
2022-08-04T17:19:44.879Z,35.66
2022-08-04T17:21:01.018Z,35.62
2022-08-04T17:21:45.865Z,35.66
2022-08-04T17:22:44.957Z,35.54
2022-08-04T17:24:14.061Z,35.47
2022-08-04T17:24:45.694Z,35.34
2022-08-04T17:25:52.392Z,35.29
2022-08-04T17:26:54.575Z,35.29
2022-08-04T17:28:09.867Z,35.36
2022-08-04T17:28:47.389Z,35.40
2022-08-04T17:29:45.186Z,35.43
2022-08-04T17:30:51.354Z,35.39
2022-08-04T17:31:46.065Z,35.40
2022-08-04T17:32:44.675Z,35.18
2022-08-04T17:33:54.974Z,35.34
2022-08-04T17:34:45.552Z,35.37
2022-08-04T17:35:44.636Z,35.32
2022-08-04T17:36:44.583Z,35.29
2022-08-04T17:37:52.963Z,35.31
2022-08-04T17:38:45.537Z,35.32
2022-08-04T17:39:45.517Z,35.20
2022-08-04T17:40:44.609Z,35.15
2022-08-04T17:41:49.140Z,35.07
2022-08-04T17:42:46.152Z,35.09
2022-08-04T17:44:03.506Z,35.15
2022-08-04T17:44:45.428Z,35.13
2022-08-04T17:45:53.437Z,35.09
2022-08-04T17:46:45.335Z,35.03
2022-08-04T17:47:44.312Z,35.17
2022-08-04T17:48:44.391Z,34.90
2022-08-04T17:49:52.760Z,34.73
2022-08-04T17:50:45.382Z,34.83
2022-08-04T17:52:04.478Z,34.78
2022-08-04T17:52:45.711Z,34.76
2022-08-04T17:54:01.851Z,34.71
2022-08-04T17:54:45.267Z,34.64
2022-08-04T17:55:44.207Z,34.78
2022-08-04T17:56:52.372Z,34.67
2022-08-04T17:57:52.656Z,34.49
2022-08-04T17:58:53.354Z,34.46
2022-08-04T17:59:52.773Z,34.50
2022-08-04T18:00:45.124Z,34.37
2022-08-04T18:01:52.128Z,34.24
2022-08-04T18:02:45.076Z,34.33
2022-08-04T18:03:45.072Z,34.27
2022-08-04T18:05:05.559Z,34.24
2022-08-04T18:06:02.357Z,34.19
2022-08-04T18:06:45.006Z,34.00
2022-08-04T18:08:38.676Z,34.00
2022-08-04T18:08:50.363Z,33.94
2022-08-04T18:10:01.728Z,33.93
2022-08-04T18:10:55.423Z,33.99
2022-08-04T18:11:44.928Z,33.97
2022-08-04T18:12:44.017Z,33.90
2022-08-04T18:13:44.015Z,33.81
2022-08-04T18:14:43.978Z,33.75
2022-08-04T18:15:46.535Z,33.77
2022-08-04T18:16:43.941Z,33.78
2022-08-04T18:18:20.507Z,33.68
2022-08-04T18:18:49.031Z,33.75
2022-08-04T18:19:48.337Z,33.74
2022-08-04T18:20:43.897Z,33.77
2022-08-04T18:21:46.854Z,33.71
2022-08-04T18:22:44.737Z,33.57
2022-08-04T18:23:50.566Z,33.55
2022-08-04T18:24:55.768Z,33.60
2022-08-04T18:25:51.219Z,33.47
2022-08-04T18:26:45.750Z,33.38
2022-08-04T18:27:43.638Z,33.31
2022-08-04T18:28:43.657Z,33.28
2022-08-04T18:29:56.453Z,33.37
2022-08-04T18:30:55.568Z,33.28
2022-08-04T18:31:44.626Z,33.17
2022-08-04T18:33:10.593Z,33.06
2022-08-04T18:33:56.961Z,33.11
2022-08-04T18:34:54.842Z,33.06
2022-08-04T18:36:59.707Z,33.14
2022-08-04T18:38:05.007Z,33.28
2022-08-04T18:38:55.365Z,33.14
2022-08-04T18:40:10.690Z,33.20
2022-08-04T18:40:52.892Z,33.05
2022-08-04T18:42:01.325Z,32.87
2022-08-04T18:42:44.433Z,32.90
2022-08-04T18:43:43.396Z,32.81
2022-08-04T18:44:52.469Z,32.72
2022-08-04T18:45:51.165Z,32.65
2022-08-04T18:47:58.323Z,32.53
2022-08-04T18:48:52.760Z,32.32
2022-08-04T18:50:58.737Z,32.22
2022-08-04T18:51:10.681Z,32.19
2022-08-04T18:51:49.078Z,32.22
2022-08-04T18:52:45.651Z,32.25
2022-08-04T18:53:44.614Z,32.27
2022-08-04T18:54:43.290Z,32.24
2022-08-04T18:55:57.397Z,32.25
2022-08-04T18:57:21.903Z,32.21
2022-08-04T18:57:59.306Z,32.21
2022-08-04T18:58:45.300Z,32.07
2022-08-04T18:59:46.607Z,32.19
2022-08-04T19:00:45.323Z,32.19
2022-08-04T19:02:44.102Z,32.13
2022-08-04T19:03:44.201Z,32.17
2022-08-04T19:04:43.087Z,32.19
2022-08-04T19:05:43.986Z,32.21
2022-08-04T19:06:43.052Z,32.14
2022-08-04T19:08:02.613Z,32.22
2022-08-04T19:08:45.177Z,32.19
2022-08-04T19:09:52.230Z,32.19
2022-08-04T19:10:43.925Z,31.97
2022-08-04T19:11:54.509Z,31.95
2022-08-04T19:12:44.104Z,31.90
2022-08-04T19:13:42.979Z,31.87
2022-08-04T19:14:43.878Z,31.82
2022-08-04T19:15:50.655Z,31.75
2022-08-04T19:16:45.871Z,31.72
2022-08-04T19:17:54.091Z,31.64
2022-08-04T19:18:43.805Z,31.56
2022-08-04T19:19:47.576Z,31.54
2022-08-04T19:20:43.828Z,31.60
2022-08-04T19:22:00.246Z,31.62
2022-08-04T19:24:28.360Z,31.72
2022-08-04T19:24:28.760Z,31.84
2022-08-04T19:24:43.697Z,31.90
2022-08-04T19:26:03.778Z,31.87
2022-08-04T19:26:43.658Z,31.85
2022-08-04T19:27:43.611Z,31.79
2022-08-04T19:28:42.703Z,31.67
2022-08-04T19:29:43.073Z,31.68
2022-08-04T19:30:42.673Z,31.67
2022-08-04T19:31:42.537Z,31.60
2022-08-04T19:32:42.667Z,31.71
2022-08-04T19:33:58.560Z,31.53
2022-08-04T19:34:45.869Z,31.47
2022-08-04T19:35:46.201Z,31.45
2022-08-04T19:36:46.008Z,31.40
2022-08-04T19:37:58.559Z,31.35
2022-08-04T19:38:43.425Z,31.30
2022-08-04T19:39:42.546Z,31.16
2022-08-04T19:40:42.538Z,31.12
2022-08-04T19:42:05.692Z,31.00
2022-08-04T19:42:43.383Z,30.96
2022-08-04T19:43:43.578Z,30.86
2022-08-04T19:44:43.864Z,30.82
2022-08-04T19:45:44.958Z,30.76
2022-08-04T19:46:42.377Z,30.82
2022-08-04T19:48:17.598Z,30.76
2022-08-04T19:48:43.354Z,30.79
2022-08-04T19:50:03.728Z,30.67
2022-08-04T19:50:43.358Z,30.67
2022-08-04T19:51:44.129Z,30.56
2022-08-04T19:52:45.870Z,30.60
2022-08-04T19:53:43.278Z,30.57
2022-08-04T19:54:43.202Z,30.42
2022-08-04T19:55:43.150Z,30.38
2022-08-04T19:56:43.209Z,30.34
2022-08-04T19:57:42.211Z,30.34
2022-08-04T19:58:42.160Z,30.34
2022-08-04T19:59:48.235Z,30.26
2022-08-04T20:00:50.947Z,30.40
2022-08-04T20:01:45.531Z,30.30
2022-08-04T20:02:42.143Z,30.34
2022-08-04T20:04:09.776Z,30.22
2022-08-04T20:04:42.982Z,30.19
2022-08-04T20:05:55.176Z,30.07
2022-08-04T20:06:42.952Z,30.11
2022-08-04T20:07:42.027Z,29.97
2022-08-04T20:08:48.292Z,29.92
2022-08-04T20:09:42.903Z,29.94
2022-08-04T20:10:51.431Z,29.89
2022-08-04T20:11:42.863Z,29.92
2022-08-04T20:12:42.712Z,29.92
2022-08-04T20:13:41.885Z,29.82
2022-08-04T20:14:41.902Z,29.78
2022-08-04T20:15:55.363Z,29.73
2022-08-04T20:16:42.797Z,29.79
2022-08-04T20:18:07.439Z,29.73
2022-08-04T20:18:55.695Z,29.73
2022-08-04T20:19:51.535Z,29.71
2022-08-04T20:20:43.664Z,29.69
2022-08-04T20:22:52.111Z,29.70
2022-08-04T20:23:48.172Z,29.63
2022-08-04T20:24:50.391Z,29.73
2022-08-04T20:26:42.586Z,29.57
2022-08-04T20:28:42.542Z,29.54
2022-08-04T20:29:43.256Z,29.54
2022-08-04T20:30:41.595Z,29.44
2022-08-04T20:31:43.246Z,29.57
2022-08-04T20:32:41.577Z,29.62
2022-08-04T20:33:41.553Z,29.64
2022-08-04T20:34:42.529Z,29.55
2022-08-04T20:36:03.360Z,29.45
2022-08-04T20:36:49.552Z,29.47
2022-08-04T20:37:55.263Z,29.44
2022-08-04T20:38:42.379Z,29.52
2022-08-04T20:39:41.497Z,29.54
2022-08-04T20:40:41.416Z,29.64
2022-08-04T20:41:41.447Z,29.58
2022-08-04T20:42:41.423Z,29.42
2022-08-04T20:43:41.381Z,29.32
2022-08-04T20:44:46.811Z,29.36
2022-08-04T20:45:56.562Z,29.45
2022-08-04T20:46:42.244Z,29.37
2022-08-04T20:47:42.215Z,29.37
2022-08-04T20:48:41.269Z,29.35
2022-08-04T20:49:41.242Z,29.33
2022-08-04T20:50:41.281Z,29.36
2022-08-04T20:51:41.127Z,29.23
2022-08-04T20:52:41.217Z,29.20
2022-08-04T20:53:52.898Z,29.12
2022-08-04T20:54:42.198Z,29.23
2022-08-04T20:55:55.776Z,29.18
2022-08-04T20:56:50.629Z,29.18
2022-08-04T20:57:48.360Z,29.14
2022-08-04T20:58:42.090Z,29.14
2022-08-04T20:59:41.102Z,29.23
2022-08-04T21:00:41.743Z,29.10
2022-08-04T21:01:41.187Z,29.23
2022-08-04T21:02:42.055Z,29.26
2022-08-04T21:03:51.011Z,29.10
2022-08-04T21:05:41.901Z,28.92
2022-08-04T21:06:41.134Z,29.08
2022-08-04T21:07:48.626Z,29.12
2022-08-04T21:08:41.938Z,29.07
2022-08-04T21:09:50.130Z,29.08
2022-08-04T21:10:42.114Z,28.98
2022-08-04T21:11:42.536Z,29.03
2022-08-04T21:12:41.869Z,28.97
2022-08-04T21:13:50.813Z,28.92
2022-08-04T21:14:41.801Z,28.97
2022-08-04T21:15:58.337Z,28.97
2022-08-04T21:16:54.799Z,28.87
2022-08-04T21:17:58.206Z,28.87
2022-08-04T21:18:41.656Z,28.80
2022-08-04T21:19:41.168Z,28.70
2022-08-04T21:21:41.595Z,28.60
2022-08-04T21:22:40.842Z,28.62
2022-08-04T21:23:41.664Z,28.64
2022-08-04T21:24:40.660Z,28.65
2022-08-04T21:25:43.459Z,28.69
2022-08-04T21:26:42.723Z,28.72
2022-08-04T21:27:41.501Z,28.67
2022-08-04T21:28:40.604Z,28.52
2022-08-04T21:29:40.586Z,28.61
2022-08-04T21:30:54.052Z,28.52
2022-08-04T21:31:50.375Z,28.55